• Join FlightAware (Why Join?)
  • Login
  • US Flag 
06:04AM EDT


 

Airport Tracker/Info


-or-


 

Live Flight TrackerFlight Track Log ✈ N589H ✈ 24-Mar-2014 ✈ CYQG - KTPA

Flight Track Log - Related Links

Times and Time Zones

All times are in EDT time to prevent confusion due to time zone crossing. See the N589H flight status page for this flight to view local times or setup timezone preferences in your user account.

Time Position Orientation Groundspeed Altitude Reporting Facility
EDT Latitude Longitude Course Direction KTS MPH feet Rate Location/Type
02:17AM 42.2714 -82.9758 202° Southwest 154 177 1,200  Level Cleveland Center
02:17AM 42.2672 -82.9781 202° Southwest 158 182 1,400 1,620 Climbing Cleveland Center
02:18AM 42.2358 -82.9914 197° South 217 250 2,600 2,040 Climbing Cleveland Center
02:18AM 42.2158 -82.9908 179° South 194 223 3,500 2,700 Climbing Cleveland Center
02:19AM 42.1839 -82.9914 181° South 192 221 5,300 2,580 Climbing Cleveland Center
02:19AM 42.1656 -82.9925 183° South 184 212 6,100 2,160 Climbing Cleveland Center
02:20AM 42.1300 -82.9886 175° South 190 219 7,500 2,100 Climbing Cleveland Center
02:21AM 42.0736 -82.9872 179° South 196 226 9,800 2,100 Climbing Cleveland Center
02:22AM 42.0150 -82.9844 178° South 203 234 11,700 1,740 Climbing Cleveland Center
02:23AM 41.9489 -82.9831 179° South 232 267 13,300 1,620 Climbing Cleveland Center
02:24AM 41.8803 -82.9794 178° South 241 277 15,000 1,620 Climbing Cleveland Center
02:25AM 41.8111 -82.9772 179° South 243 280 16,600 1,380 Climbing Cleveland Center
02:26AM 41.7381 -82.9742 178° South 259 298 17,800 960 Climbing Cleveland Center
02:27AM 41.6617 -82.9719 179° South 271 312 18,600 1,200 Climbing Cleveland Center
02:28AM 41.5831 -82.9689 178° South 280 322 20,200 1,560 Climbing Cleveland Center
02:29AM 41.5067 -82.9656 178° South 279 321 21,800 1,260 Climbing Cleveland Center
02:30AM 41.4314 -82.9647 180° South 272 313 22,800 1,020 Climbing Cleveland Center
02:31AM 41.3494 -82.9611 178° South 292 336 23,900 1,140 Climbing Cleveland Center
02:32AM 41.2661 -82.9569 178° South 295 339 25,100 1,140 Climbing Cleveland Center
02:33AM 41.1844 -82.9542 179° South 295 339 26,200 1,140 Climbing Cleveland Center
02:34AM 41.0956 -82.9522 179° South 295 339 27,500 1,200 Climbing Cleveland Center
02:35AM 41.0139 -82.9481 178° South 296 341 28,700 1,080 Climbing Cleveland Center
02:36AM 40.9317 -82.9450 178° South 294 338 29,700 960 Climbing Cleveland Center
02:37AM 40.8639 -82.9411 178° South 296 341 30,500 840 Climbing Indianapolis Center
02:38AM 40.7789 -82.9389 179° South 302 348 31,300 660 Climbing Indianapolis Center
02:39AM 40.6903 -82.9353 178° South 314 361 31,900 300 Climbing Indianapolis Center
02:40AM 40.5986 -82.9311 178° South 326 375 32,000  Climbing Indianapolis Center
02:41AM 40.5022 -82.9283 179° South 340 391 32,000  Level Indianapolis Center
02:42AM 40.4019 -82.9244 178° South 354 407 32,000  Level Indianapolis Center
02:43AM 40.2989 -82.9200 178° South 365 420 32,000  Level Indianapolis Center
02:44AM 40.1958 -82.9164 178° South 367 422 32,000  Level Indianapolis Center
02:45AM 40.0919 -82.9136 179° South 369 425 32,000  Level Indianapolis Center
02:46AM 39.9883 -82.9092 178° South 369 425 32,000  Level Indianapolis Center
02:47AM 39.8847 -82.9050 178° South 369 425 32,000  Level Indianapolis Center
02:48AM 39.7811 -82.9025 179° South 369 425 32,000  Level Indianapolis Center
02:49AM 39.6781 -82.8989 178° South 369 425 32,000  Level Indianapolis Center
02:50AM 39.5744 -82.8950 178° South 369 425 32,000  Level Indianapolis Center
02:51AM 39.4708 -82.8903 178° South 370 426 32,000  Level Indianapolis Center
02:52AM 39.3672 -82.8861 178° South 370 426 32,000  Level Indianapolis Center
02:53AM 39.2633 -82.8822 178° South 370 426 32,000  Level Indianapolis Center
02:54AM 39.1644 -82.8781 178° South 371 427 32,000  Level Indianapolis Center
02:55AM 39.0597 -82.8744 178° South 371 427 32,000  Level Indianapolis Center
02:56AM 38.9556 -82.8711 179° South 372 428 32,000  Level Indianapolis Center
02:57AM 38.8514 -82.8681 179° South 373 429 32,000  Level Indianapolis Center
02:58AM 38.7492 -82.8639 178° South 372 428 32,000  Level Indianapolis Center
02:59AM 38.6383 -82.8597 178° South 372 428 32,000  Level Indianapolis Center
03:00AM 38.5344 -82.8558 178° South 373 429 32,000  Level Indianapolis Center
03:01AM 38.4322 -82.8531 179° South 372 428 32,000  Level Indianapolis Center
03:02AM 38.3297 -82.8489 178° South 370 426 32,000  Level Indianapolis Center
03:03AM 38.2281 -82.8456 179° South 365 420 32,000  Level Indianapolis Center
03:04AM 38.1439 -82.8425 178° South 365 420 32,000  Level Indianapolis Center
03:05AM 38.0431 -82.8389 178° South 364 419 32,000  Level Indianapolis Center
03:06AM 37.9411 -82.8358 179° South 364 419 32,000  Level Indianapolis Center
03:07AM 37.8408 -82.8314 178° South 364 419 32,000  Level Indianapolis Center
03:08AM 37.7403 -82.8289 179° South 363 418 32,000  Level Indianapolis Center
03:09AM 37.6394 -82.8256 179° South 363 418 32,000  Level Indianapolis Center
03:10AM 37.5383 -82.8231 179° South 363 418 32,000  Level Indianapolis Center
03:11AM 37.4369 -82.8200 179° South 363 418 32,000  Level Indianapolis Center
03:12AM 37.3369 -82.8164 178° South 361 415 32,000  Level Indianapolis Center
03:13AM 37.2361 -82.8139 179° South 361 415 32,000  Level Indianapolis Center
03:14AM 37.1358 -82.8100 178° South 360 414 32,000  Level Indianapolis Center
03:15AM 37.0350 -82.8072 179° South 360 414 32,000  Level Indianapolis Center
03:16AM 36.9389 -82.8053 179° South 360 414 32,000  Level Indianapolis Center
03:17AM 36.8325 -82.8006 178° South 356 410 32,000  Level Indianapolis Center
04:01AM 32.5086 -82.6658 179° South 362 417 32,000  Level Jacksonville Center
04:02AM 32.8228 -82.6550 179° South  Level FlightAware Approximate
04:02AM 32.4128 -82.6636 179° South 343 395 32,000  Level Jacksonville Center
04:03AM 32.7330 -82.6524 179° South  Level FlightAware Approximate
04:03AM 32.3125 -82.6592 178° South 338 389 32,000  Level Jacksonville Center
04:04AM 32.6432 -82.6498 179° South  Level FlightAware Approximate
04:04AM 32.2164 -82.6569 179° South 349 402 32,000  Level Jacksonville Center
04:05AM 32.5534 -82.6476 179° South  Level FlightAware Approximate
04:06AM 32.0761 -82.6437 175° South  Level FlightAware Approximate
04:13AM 31.4476 -82.6196 179° South  Level FlightAware Approximate
04:14AM 31.3578 -82.6172 179° South  Level FlightAware Approximate
04:15AM 31.2680 -82.6148 179° South  Level FlightAware Approximate
04:16AM 31.1782 -82.6125 179° South  Level FlightAware Approximate
04:17AM 31.0885 -82.6101 179° South  Level FlightAware Approximate
04:18AM 30.9987 -82.6078 179° South  Level FlightAware Approximate
04:19AM 30.9089 -82.6054 179° South  Level FlightAware Approximate
04:20AM 30.8191 -82.6031 179° South  Level FlightAware Approximate
04:21AM 30.7293 -82.6008 179° South  Level FlightAware Approximate
04:22AM 30.6396 -82.5982 179° South  Level FlightAware Approximate
04:23AM 30.5498 -82.5956 179° South  Level FlightAware Approximate
04:24AM 30.4600 -82.5929 179° South  Level FlightAware Approximate
04:25AM 30.3702 -82.5903 179° South  Level FlightAware Approximate
04:26AM 30.2805 -82.5876 179° South  Level FlightAware Approximate
04:27AM 30.1907 -82.5850 179° South  Level FlightAware Approximate
04:28AM 30.1009 -82.5833 180° South  Level FlightAware Approximate
04:29AM 30.0111 -82.5833 180° South  Level FlightAware Approximate
04:30AM 29.9214 -82.5816 173° South  Level FlightAware Approximate
04:31AM 29.8323 -82.5689 173° South  Level FlightAware Approximate
04:32AM 29.7426 -82.5667 180° South  Level FlightAware Approximate
04:33AM 29.6528 -82.5667 180° South  Level FlightAware Approximate
04:34AM 29.5630 -82.5667 180° South  Level FlightAware Approximate
04:35AM 29.4732 -82.5667 180° South  Level FlightAware Approximate
04:36AM 29.3834 -82.5667 180° South  Level FlightAware Approximate
04:37AM 29.2937 -82.5603 176° South  Level FlightAware Approximate
04:38AM 29.2041 -82.5539 176° South  Level FlightAware Approximate
04:39AM 29.1144 -82.5500 180° South  Level FlightAware Approximate
04:40AM 29.0246 -82.5500 180° South  Level FlightAware Approximate
04:41AM 28.9348 -82.5500 180° South  Level FlightAware Approximate
04:42AM 28.8450 -82.5500 180° South  Level FlightAware Approximate
04:43AM 28.7552 -82.5500 180° South  Level FlightAware Approximate
04:44AM 28.6658 -82.5443 172° South  Level FlightAware Approximate
04:45AM 28.5767 -82.5333 180° South  Level FlightAware Approximate
04:46AM 28.4869 -82.5333 180° South  Level FlightAware Approximate
04:47AM 28.3971 -82.5333 180° South  Level FlightAware Approximate
04:48AM 28.3072 -82.5333 180° South  Level FlightAware Approximate
04:49AM 28.2174 -82.5333 180° South  Level FlightAware Approximate
04:50AM 28.1276 -82.5333 180° South  Level FlightAware Approximate
04:51AM 28.0380 -82.5309 170° South  Level FlightAware Approximate
04:52AM 27.9755 -82.5332 170° South  Level Estimated
04:53AM 27.9755 -82.5332 170° South  Level Estimated
04:54AM 27.9755 -82.5332 170° South  Level Estimated
04:55AM 27.9755 -82.5332 170° South  Level Estimated
04:56AM 27.9755 -82.5332 170° South  Level Estimated
04:57AM 27.9755 -82.5332 170° South  Level Estimated
04:58AM 27.9755 -82.5332 170° South  Level Estimated
04:59AM 27.9755 -82.5332 170° South  Level Estimated
05:00AM 27.9755 -82.5332 170° South  Level Estimated
05:01AM 27.9755 -82.5332 170° South  Level Estimated
05:02AM 27.9755 -82.5332 170° South  Level Estimated
05:03AM 27.9755 -82.5332 170° South  Level Estimated
05:04AM 27.9755 -82.5332 170° South  Level Estimated
05:05AM 27.9755 -82.5332 170° South  Level Estimated